Pagina principale
METAR-TAF:

METAR-TAF

Aeroporti :

Aeroporto di Iași

Iasi, Romania

latitudine: 47-10N, longitudine: 027-38E, altezza: 102 m

Osservazione

Il bollettino è stato emesso 18 minuti fa, alle 10:00 UTC
Vento 16 kt da nord-ovest
Temperature 14°C
Umidità 82%
Pressione 1011 hPa
Visibilità 10 km o più
Nuvoloso ad un'altezza di 2500 ft
Poco nuvoloso ad un'altezza di 4000 ft, Cumulonembo.
pioggia debole

METAR: LRIA 291000Z 32016KT 9999 -RA BKN025 FEW040CB 14/11 Q1011

Ora: 13:18 (10:18 UTC)

Previsione

Il bollettino è stato emesso 2 ore e 18 minuti fa, alle 08:00 UTC
Previsione valida dal 29 alle 09 UTC al 29 alle 18 UTC
Vento 18 kt da nord-ovest
Visibilità 10 km o più
Nuvoloso ad un'altezza di 2500 ft
Temporaneamente
dal 29 alle 11 UTC al 29 alle 15 UTC
Visibilità: 5000 m
Nuvoloso ad un'altezza di 1500 ft
Nubi sparse ad un'altezza di 3000 ft, Cumulonembo.
rovesci di pioggia

TAF: LRIA 290800Z 2909/2918 31018KT 9999 BKN025 TEMPO 2911/2915 5000 SHRA BKN015 SCT030CB

Osservazioni e previsioni meteorologiche di più di 4000 aeroporti (messaggi METAR e TAF).

Le stazioni disponibili sono rappresentate dai dischi gialli e rossi sulla carta.

Puntare il mouse per vedere il nome della stazione.

Clicca sopra per visualizzare le osservazioni e previsioni meteorologiche.

Per cambiare la mappa : fare clic sui pulsanti verdi con una croce nera per ingrandire, il pulsante verde con un trattino per diminuire, o sulla freccia verde per le mappe adiacenti.


METAR-TAF: